createdAt,value
2022-10-13T00:00:46.064Z,7.90
2022-10-13T00:03:13.618Z,8.00
2022-10-13T00:05:45.309Z,7.90
2022-10-13T00:08:13.888Z,7.70
2022-10-13T00:10:41.648Z,7.50
2022-10-13T00:13:09.139Z,7.50
2022-10-13T00:15:41.323Z,7.60
2022-10-13T00:18:08.296Z,7.70
2022-10-13T00:20:36.280Z,7.20
2022-10-13T00:25:30.546Z,7.30
2022-10-13T00:27:57.372Z,7.30
2022-10-13T00:30:24.331Z,7.20
2022-10-13T00:32:51.171Z,7.40
2022-10-13T00:35:18.056Z,7.30
2022-10-13T00:37:44.939Z,6.90
2022-10-13T00:40:12.383Z,7.10
2022-10-13T00:42:41.810Z,7.30
2022-10-13T00:45:26.343Z,7.10
2022-10-13T00:48:01.911Z,6.90
2022-10-13T00:50:36.054Z,6.90
2022-10-13T00:55:34.492Z,6.90
2022-10-13T00:58:05.665Z,6.80
2022-10-13T01:00:34.731Z,6.60
2022-10-13T01:03:02.799Z,6.80
2022-10-13T01:05:30.740Z,6.70
2022-10-13T01:07:58.635Z,6.40
2022-10-13T01:10:45.503Z,6.30
2022-10-13T01:13:16.615Z,6.40
2022-10-13T01:15:43.416Z,6.60
2022-10-13T01:18:19.340Z,6.60
2022-10-13T01:20:59.823Z,6.30
2022-10-13T01:23:48.100Z,6.30
2022-10-13T01:26:18.440Z,6.50
2022-10-13T01:29:12.048Z,6.80
2022-10-13T01:31:44.723Z,7.00
2022-10-13T01:34:21.282Z,6.90
2022-10-13T01:37:01.361Z,6.60
2022-10-13T01:39:38.518Z,6.70
2022-10-13T01:42:14.197Z,6.90
2022-10-13T01:44:48.500Z,6.70
2022-10-13T01:47:17.705Z,6.50
2022-10-13T01:49:45.878Z,6.50
2022-10-13T01:52:19.077Z,6.70
2022-10-13T01:54:51.575Z,6.70
2022-10-13T01:57:39.841Z,6.80
2022-10-13T02:00:13.497Z,6.90
2022-10-13T02:02:50.377Z,7.00
2022-10-13T02:07:46.866Z,6.80
2022-10-13T02:10:47.388Z,6.80
2022-10-13T02:13:17.507Z,6.80
2022-10-13T02:15:49.112Z,6.50
2022-10-13T02:18:20.131Z,6.20
2022-10-13T02:20:48.180Z,6.10
2022-10-13T02:23:17.950Z,6.50
2022-10-13T02:25:46.171Z,6.70
2022-10-13T02:28:14.396Z,6.70
2022-10-13T02:30:41.614Z,6.60
2022-10-13T02:33:09.408Z,6.80
2022-10-13T02:35:36.273Z,6.90
2022-10-13T02:38:03.635Z,7.00
2022-10-13T02:40:30.645Z,6.80
2022-10-13T02:42:57.580Z,6.80
2022-10-13T02:45:24.479Z,6.90
2022-10-13T02:47:51.341Z,6.70
2022-10-13T02:50:18.287Z,6.70
2022-10-13T02:52:45.152Z,6.90
2022-10-13T02:55:11.993Z,7.00
2022-10-13T02:57:38.839Z,6.70
2022-10-13T03:00:07.490Z,6.70
2022-10-13T03:02:34.444Z,6.70
2022-10-13T03:05:01.280Z,6.70
2022-10-13T03:09:55.423Z,6.50
2022-10-13T03:19:45.269Z,6.40
2022-10-13T03:22:14.728Z,6.70
2022-10-13T03:24:42.259Z,6.60
2022-10-13T03:27:09.415Z,6.70
2022-10-13T03:29:36.303Z,6.20
2022-10-13T03:32:03.471Z,6.10
2022-10-13T03:34:30.449Z,6.00
2022-10-13T03:36:57.906Z,5.90
2022-10-13T03:39:24.979Z,5.70
2022-10-13T03:46:47.082Z,5.90
2022-10-13T03:49:13.965Z,5.80
2022-10-13T03:54:13.123Z,5.60
2022-10-13T03:56:40.637Z,5.90
2022-10-13T03:59:08.331Z,6.00
2022-10-13T04:01:35.339Z,6.10
2022-10-13T04:04:02.758Z,6.10
2022-10-13T04:06:31.211Z,6.00
2022-10-13T04:08:58.240Z,5.80
2022-10-13T04:11:25.302Z,5.80
2022-10-13T04:16:23.563Z,6.10
2022-10-13T04:18:56.551Z,6.10
2022-10-13T04:21:24.268Z,6.20
2022-10-13T04:26:22.026Z,6.40
2022-10-13T04:28:50.238Z,6.30
2022-10-13T04:31:17.423Z,6.30
2022-10-13T04:33:45.871Z,6.30
2022-10-13T04:36:14.128Z,6.00
2022-10-13T04:38:42.436Z,5.80
2022-10-13T04:43:37.150Z,5.80
2022-10-13T04:46:25.166Z,5.80
2022-10-13T04:48:52.729Z,5.70
2022-10-13T04:51:22.650Z,6.00
2022-10-13T04:53:53.872Z,6.00
2022-10-13T04:56:20.731Z,6.10
2022-10-13T04:58:47.570Z,6.30
2022-10-13T05:01:22.341Z,6.10
2022-10-13T05:04:00.179Z,6.30
2022-10-13T05:06:30.933Z,6.40
2022-10-13T05:08:58.493Z,6.40
2022-10-13T05:11:29.439Z,6.40
2022-10-13T05:13:57.492Z,6.60
2022-10-13T05:16:25.236Z,6.60
2022-10-13T05:18:54.161Z,6.80
2022-10-13T05:21:29.148Z,6.80
2022-10-13T05:23:57.669Z,7.00
2022-10-13T05:26:29.361Z,7.00
2022-10-13T05:28:57.053Z,6.80
2022-10-13T05:31:25.274Z,7.00
2022-10-13T05:33:53.100Z,7.00
2022-10-13T05:36:22.608Z,7.10
2022-10-13T05:38:54.443Z,7.20
2022-10-13T05:41:22.705Z,7.40
2022-10-13T05:43:51.469Z,7.50
2022-10-13T05:46:18.389Z,7.60
2022-10-13T05:48:45.214Z,7.90
2022-10-13T05:51:19.283Z,7.60
2022-10-13T05:53:55.387Z,7.40
2022-10-13T05:56:30.173Z,7.40
2022-10-13T05:59:01.942Z,7.40
2022-10-13T06:01:34.507Z,7.50
2022-10-13T06:04:05.042Z,7.70
2022-10-13T06:06:32.319Z,7.60
2022-10-13T06:09:01.019Z,7.60
2022-10-13T06:11:28.142Z,7.80
2022-10-13T06:13:54.978Z,8.10
2022-10-13T06:16:21.939Z,8.40
2022-10-13T06:18:48.780Z,8.60
2022-10-13T06:21:15.617Z,8.70
2022-10-13T06:23:42.507Z,8.70
2022-10-13T06:26:09.377Z,8.80
2022-10-13T06:31:05.643Z,9.60
2022-10-13T06:36:07.105Z,10.00
2022-10-13T06:38:34.162Z,9.70
2022-10-13T06:41:01.961Z,9.70
2022-10-13T06:43:35.748Z,10.10
2022-10-13T06:46:07.239Z,10.30
2022-10-13T06:48:34.407Z,10.40
2022-10-13T06:51:03.045Z,10.40
2022-10-13T06:53:29.934Z,10.90
2022-10-13T06:55:58.931Z,11.10
2022-10-13T06:58:26.211Z,11.70
2022-10-13T07:00:53.970Z,11.30
2022-10-13T07:03:21.777Z,11.50
2022-10-13T07:08:15.914Z,14.40
2022-10-13T07:10:43.882Z,13.30
2022-10-13T07:15:39.642Z,13.90
2022-10-13T07:18:07.405Z,14.50
2022-10-13T07:20:34.698Z,15.00
2022-10-13T07:23:01.989Z,15.30
2022-10-13T07:30:23.524Z,16.70
2022-10-13T07:32:50.805Z,17.30
2022-10-13T07:35:17.790Z,16.40
2022-10-13T07:37:44.647Z,16.90
2022-10-13T07:40:11.776Z,16.90
2022-10-13T07:42:38.610Z,17.10
2022-10-13T07:45:06.381Z,17.10
2022-10-13T07:47:33.322Z,17.20
2022-10-13T07:50:00.230Z,15.70
2022-10-13T07:52:27.120Z,16.20
2022-10-13T07:54:54.206Z,16.40
2022-10-13T07:57:21.675Z,16.10
2022-10-13T07:59:48.826Z,17.20
2022-10-13T08:02:19.270Z,17.60
2022-10-13T08:04:49.181Z,16.80
2022-10-13T08:07:17.199Z,16.90
2022-10-13T08:09:45.273Z,16.60
2022-10-13T08:12:12.293Z,16.90
2022-10-13T08:17:07.054Z,16.90
2022-10-13T08:19:34.140Z,17.20
2022-10-13T08:22:00.990Z,17.50
2022-10-13T08:24:28.545Z,18.20
2022-10-13T08:26:56.260Z,18.00
2022-10-13T08:29:24.169Z,17.30
2022-10-13T08:31:54.916Z,17.80
2022-10-13T08:34:23.393Z,18.30
2022-10-13T08:36:53.515Z,18.50
2022-10-13T08:39:21.788Z,18.70
2022-10-13T08:41:48.786Z,17.80
2022-10-13T08:45:15.692Z,19.30
2022-10-13T08:47:42.188Z,19.60
2022-10-13T08:50:15.795Z,19.30
2022-10-13T08:52:50.563Z,20.20
2022-10-13T08:55:45.338Z,19.90
2022-10-13T08:58:23.591Z,20.00
2022-10-13T09:01:09.332Z,20.50
2022-10-13T09:03:55.900Z,20.70
2022-10-13T09:06:55.020Z,21.00
2022-10-13T09:09:22.133Z,21.10
2022-10-13T09:11:50.818Z,19.50
2022-10-13T09:14:30.544Z,19.30
2022-10-13T09:17:23.831Z,19.10
2022-10-13T09:20:20.159Z,20.00
2022-10-13T09:23:01.307Z,20.00
2022-10-13T09:25:28.229Z,20.20
2022-10-13T09:27:58.246Z,20.20
2022-10-13T09:30:36.635Z,21.00
2022-10-13T09:33:09.501Z,21.60
2022-10-13T09:35:37.542Z,21.60
2022-10-13T09:38:13.952Z,20.30
2022-10-13T09:43:28.964Z,20.20
2022-10-13T09:45:56.382Z,21.40
2022-10-13T09:48:27.479Z,21.10
2022-10-13T09:50:56.508Z,21.70
2022-10-13T09:56:09.162Z,21.40
2022-10-13T09:58:41.015Z,21.70
2022-10-13T10:01:19.055Z,21.70
2022-10-13T10:03:49.378Z,21.80
2022-10-13T10:06:17.077Z,21.30
2022-10-13T10:09:12.255Z,22.20
2022-10-13T10:11:45.347Z,21.10
2022-10-13T10:14:21.242Z,21.80
2022-10-13T10:17:12.607Z,22.30
2022-10-13T10:20:06.407Z,22.30
2022-10-13T10:25:21.510Z,23.00
2022-10-13T10:28:13.463Z,22.20
2022-10-13T10:31:14.102Z,22.30
2022-10-13T10:33:59.057Z,23.60
2022-10-13T10:36:41.562Z,23.90
2022-10-13T10:39:39.835Z,24.30
2022-10-13T10:42:24.908Z,22.70
2022-10-13T10:44:55.276Z,22.20
2022-10-13T10:47:36.886Z,23.10
2022-10-13T10:50:07.870Z,23.00
2022-10-13T10:52:51.698Z,23.80
2022-10-13T10:55:34.431Z,23.00
2022-10-13T10:58:19.759Z,22.80
2022-10-13T11:00:52.384Z,23.40
2022-10-13T11:04:00.767Z,23.80
2022-10-13T11:06:37.888Z,22.50
2022-10-13T11:09:06.287Z,23.60
2022-10-13T11:11:39.160Z,23.60
2022-10-13T11:14:05.868Z,23.60
2022-10-13T11:16:41.614Z,24.20
2022-10-13T11:21:54.014Z,23.90
2022-10-13T11:24:42.529Z,24.40
2022-10-13T11:27:10.741Z,24.00
2022-10-13T11:29:53.936Z,24.60
2022-10-13T11:32:26.687Z,23.10
2022-10-13T11:35:05.651Z,22.40
2022-10-13T11:38:13.868Z,22.50
2022-10-13T11:41:15.942Z,21.80
2022-10-13T11:44:03.087Z,23.00
2022-10-13T11:47:02.806Z,22.80
2022-10-13T11:49:57.472Z,22.90
2022-10-13T11:53:01.100Z,22.30
2022-10-13T11:55:31.001Z,22.50
2022-10-13T11:58:16.052Z,22.60
2022-10-13T12:01:00.332Z,23.30
2022-10-13T12:03:33.246Z,23.00
2022-10-13T12:06:04.766Z,22.90
2022-10-13T12:08:36.812Z,23.70
2022-10-13T12:11:07.701Z,23.10
2022-10-13T12:13:36.385Z,22.50
2022-10-13T12:16:06.407Z,22.00
2022-10-13T12:18:36.686Z,20.80
2022-10-13T12:21:10.687Z,21.30
2022-10-13T12:26:05.405Z,22.20
2022-10-13T12:28:55.240Z,22.20
2022-10-13T12:31:27.885Z,21.40
2022-10-13T12:33:56.929Z,21.00
2022-10-13T12:36:35.435Z,20.80
2022-10-13T12:39:06.038Z,20.10
2022-10-13T12:41:38.581Z,20.70
2022-10-13T12:44:06.929Z,21.20
2022-10-13T12:46:56.270Z,20.80
2022-10-13T12:49:32.114Z,21.30
2022-10-13T12:52:05.688Z,21.10
2022-10-13T12:54:35.406Z,20.50
2022-10-13T12:57:38.034Z,20.00
2022-10-13T13:00:17.752Z,20.20
2022-10-13T13:02:55.046Z,20.10
2022-10-13T13:05:37.982Z,20.20
2022-10-13T13:08:27.110Z,19.70
2022-10-13T13:11:07.049Z,19.40
2022-10-13T13:13:34.522Z,19.50
2022-10-13T13:16:19.450Z,19.90
2022-10-13T13:18:47.961Z,20.20
2022-10-13T13:21:17.404Z,20.30
2022-10-13T13:23:51.193Z,20.50
2022-10-13T13:26:23.403Z,19.60
2022-10-13T13:28:53.119Z,19.90
2022-10-13T13:31:25.021Z,19.80
2022-10-13T13:33:52.127Z,19.70
2022-10-13T13:36:26.926Z,18.30
2022-10-13T13:38:54.351Z,19.10
2022-10-13T13:41:22.367Z,19.30
2022-10-13T13:43:49.482Z,19.40
2022-10-13T13:46:21.633Z,19.50
2022-10-13T13:51:16.903Z,19.30
2022-10-13T13:53:43.969Z,19.20
2022-10-13T13:56:15.141Z,18.80
2022-10-13T14:03:37.579Z,18.60
2022-10-13T14:08:36.966Z,18.70
2022-10-13T14:11:07.512Z,18.60
2022-10-13T14:13:35.051Z,19.00
2022-10-13T14:16:02.702Z,19.00
2022-10-13T14:18:30.928Z,19.30
2022-10-13T14:25:52.284Z,18.30
2022-10-13T14:28:19.210Z,18.00
2022-10-13T14:33:13.436Z,17.60
2022-10-13T14:43:02.140Z,17.30
2022-10-13T14:45:28.978Z,17.30
2022-10-13T14:47:55.927Z,17.20
2022-10-13T14:52:50.014Z,16.60
2022-10-13T14:55:16.969Z,16.60
2022-10-13T15:00:11.778Z,16.40
2022-10-13T15:02:39.024Z,16.10
2022-10-13T15:05:06.565Z,15.80
2022-10-13T15:07:34.041Z,15.60
2022-10-13T15:10:06.497Z,15.70
2022-10-13T15:12:33.852Z,15.50
2022-10-13T15:15:00.716Z,15.20
2022-10-13T15:17:28.306Z,15.30
2022-10-13T15:19:55.348Z,15.30
2022-10-13T15:22:22.594Z,15.20
2022-10-13T15:24:49.980Z,15.10
2022-10-13T15:27:16.853Z,14.90
2022-10-13T15:32:17.993Z,14.40
2022-10-13T15:34:45.512Z,14.40
2022-10-13T15:37:12.491Z,14.40
2022-10-13T15:42:06.635Z,14.40
2022-10-13T15:44:57.348Z,14.30
2022-10-13T15:47:20.433Z,14.10
2022-10-13T15:49:47.311Z,13.80
2022-10-13T15:52:14.193Z,13.80
2022-10-13T15:57:08.335Z,14.00
2022-10-13T16:02:02.525Z,13.70
2022-10-13T16:04:33.473Z,13.60
2022-10-13T16:07:03.357Z,13.70
2022-10-13T16:09:31.095Z,13.60
2022-10-13T16:11:58.009Z,13.70
2022-10-13T16:14:25.338Z,13.70
2022-10-13T16:21:47.132Z,13.40
2022-10-13T16:24:13.984Z,13.40
2022-10-13T16:26:41.003Z,13.30
2022-10-13T16:29:07.887Z,13.30
2022-10-13T16:31:34.905Z,13.20
2022-10-13T16:34:01.742Z,13.20
2022-10-13T16:36:28.809Z,13.20
2022-10-13T16:38:56.097Z,13.10
2022-10-13T16:41:23.881Z,12.90
2022-10-13T16:43:51.081Z,12.80
2022-10-13T16:46:20.604Z,12.70
2022-10-13T16:48:47.900Z,12.70
2022-10-13T16:51:21.130Z,12.70
2022-10-13T16:53:49.450Z,12.80
2022-10-13T16:56:21.307Z,12.50
2022-10-13T16:59:04.123Z,12.70
2022-10-13T17:01:32.415Z,12.40
2022-10-13T17:03:59.867Z,12.40
2022-10-13T17:06:28.999Z,12.60
2022-10-13T17:08:58.486Z,12.40
2022-10-13T17:11:28.010Z,12.40
2022-10-13T17:13:57.080Z,12.00
2022-10-13T17:16:24.647Z,12.20
2022-10-13T17:18:51.655Z,12.30
2022-10-13T17:21:18.806Z,12.20
2022-10-13T17:26:17.478Z,12.10
2022-10-13T17:31:16.582Z,11.80
2022-10-13T17:33:44.287Z,11.70
2022-10-13T17:36:15.310Z,11.60
2022-10-13T17:38:43.302Z,11.60
2022-10-13T17:41:11.341Z,11.80
2022-10-13T17:43:40.050Z,11.90
2022-10-13T17:46:34.945Z,12.00
2022-10-13T17:49:00.812Z,11.80
2022-10-13T17:51:28.021Z,12.00
2022-10-13T17:56:24.157Z,12.00
2022-10-13T17:58:51.544Z,11.90
2022-10-13T18:01:21.768Z,11.80
2022-10-13T18:04:00.489Z,11.70
2022-10-13T18:06:38.661Z,11.50
2022-10-13T18:09:11.230Z,11.70
2022-10-13T18:11:38.405Z,11.60
2022-10-13T18:14:05.809Z,11.40
2022-10-13T18:19:00.090Z,11.60
2022-10-13T18:21:27.112Z,11.40
2022-10-13T18:23:59.920Z,11.30
2022-10-13T18:26:29.092Z,11.20
2022-10-13T18:31:27.671Z,11.30
2022-10-13T18:33:56.210Z,11.10
2022-10-13T18:36:28.422Z,11.00
2022-10-13T18:39:00.660Z,11.10
2022-10-13T18:46:22.930Z,11.10
2022-10-13T18:48:50.248Z,10.90
2022-10-13T18:51:19.582Z,10.90
2022-10-13T18:53:50.552Z,10.90
2022-10-13T18:56:23.901Z,10.90
2022-10-13T18:58:55.674Z,11.10
2022-10-13T19:01:26.853Z,11.10
2022-10-13T19:03:54.833Z,10.90
2022-10-13T19:06:26.912Z,11.10
2022-10-13T19:09:05.315Z,11.00
2022-10-13T19:11:32.820Z,11.00
2022-10-13T19:14:00.716Z,10.90
2022-10-13T19:16:30.345Z,10.90
2022-10-13T19:18:57.511Z,10.60
2022-10-13T19:21:25.162Z,10.50
2022-10-13T19:23:52.267Z,10.50
2022-10-13T19:26:24.906Z,10.50
2022-10-13T19:28:56.534Z,10.50
2022-10-13T19:31:25.483Z,10.70
2022-10-13T19:33:53.130Z,10.40
2022-10-13T19:36:24.957Z,10.40
2022-10-13T19:38:53.013Z,10.40
2022-10-13T19:43:47.525Z,10.30
2022-10-13T19:48:42.249Z,10.20
2022-10-13T19:51:09.590Z,10.40
2022-10-13T19:53:38.134Z,10.10
2022-10-13T19:56:08.872Z,10.10
2022-10-13T19:58:36.072Z,9.90
2022-10-13T20:01:08.456Z,10.00
2022-10-13T20:03:35.498Z,10.10
2022-10-13T20:06:06.352Z,9.80
2022-10-13T20:08:33.415Z,9.60
2022-10-13T20:11:08.003Z,9.80
2022-10-13T20:13:35.635Z,9.70
2022-10-13T20:16:17.049Z,9.80
2022-10-13T20:21:12.915Z,9.80
2022-10-13T20:23:40.978Z,10.00
2022-10-13T20:26:11.345Z,9.80
2022-10-13T20:28:48.131Z,9.70
2022-10-13T20:31:17.568Z,9.80
2022-10-13T20:36:14.147Z,9.60
2022-10-13T20:41:21.129Z,9.40
2022-10-13T20:43:49.167Z,9.30
2022-10-13T20:46:17.816Z,9.40
2022-10-13T20:51:32.612Z,9.30
2022-10-13T20:53:59.484Z,9.00
2022-10-13T20:56:27.014Z,9.10
2022-10-13T20:58:54.710Z,8.90
2022-10-13T21:01:23.097Z,9.00
2022-10-13T21:03:54.040Z,9.10
2022-10-13T21:06:21.668Z,9.00
2022-10-13T21:08:48.817Z,8.80
2022-10-13T21:11:17.844Z,9.10
2022-10-13T21:13:45.482Z,8.90
2022-10-13T21:16:17.532Z,8.40
2022-10-13T21:18:48.180Z,8.70
2022-10-13T21:21:17.578Z,8.90
2022-10-13T21:26:13.011Z,8.80
2022-10-13T21:31:11.500Z,8.80
2022-10-13T21:33:39.767Z,8.60
2022-10-13T21:36:14.610Z,8.70
2022-10-13T21:38:42.525Z,8.40
2022-10-13T21:41:11.257Z,8.70
2022-10-13T21:43:38.486Z,8.70
2022-10-13T21:46:17.185Z,8.70
2022-10-13T21:48:46.022Z,8.70
2022-10-13T21:51:17.372Z,8.40
2022-10-13T21:53:48.186Z,8.40
2022-10-13T21:56:15.020Z,8.20
2022-10-13T21:58:41.938Z,8.40
2022-10-13T22:01:09.388Z,8.30
2022-10-13T22:03:36.383Z,8.20
2022-10-13T22:06:08.221Z,8.20
2022-10-13T22:08:42.813Z,8.50
2022-10-13T22:11:11.735Z,8.40
2022-10-13T22:13:39.365Z,8.30
2022-10-13T22:16:42.926Z,8.10
2022-10-13T22:19:10.741Z,8.30
2022-10-13T22:21:41.426Z,8.00
2022-10-13T22:24:10.989Z,8.10
2022-10-13T22:26:41.149Z,8.20
2022-10-13T22:29:09.752Z,8.30
2022-10-13T22:34:04.653Z,8.20
2022-10-13T22:36:32.004Z,8.00
2022-10-13T22:39:02.764Z,8.10
2022-10-13T22:41:30.670Z,8.20
2022-10-13T22:43:58.841Z,8.00
2022-10-13T22:46:31.117Z,7.90
2022-10-13T22:48:58.201Z,8.30
2022-10-13T22:51:27.333Z,8.20
2022-10-13T22:53:54.614Z,8.50
2022-10-13T22:56:24.427Z,8.50
2022-10-13T22:58:53.000Z,8.10
2022-10-13T23:01:21.378Z,8.00
2022-10-13T23:03:49.732Z,8.00
2022-10-13T23:06:19.048Z,8.00
2022-10-13T23:08:46.004Z,7.90
2022-10-13T23:13:40.445Z,8.00
2022-10-13T23:16:16.817Z,7.80
2022-10-13T23:21:13.664Z,8.00
2022-10-13T23:23:40.877Z,7.80
2022-10-13T23:26:10.425Z,7.80
2022-10-13T23:28:37.904Z,7.60
2022-10-13T23:31:07.584Z,7.80
2022-10-13T23:33:34.891Z,7.70
2022-10-13T23:36:02.527Z,7.80
2022-10-13T23:38:31.285Z,7.80
2022-10-13T23:41:10.889Z,8.00
2022-10-13T23:43:37.902Z,7.80
2022-10-13T23:46:05.334Z,7.70
2022-10-13T23:51:09.777Z,7.70
2022-10-13T23:53:38.273Z,7.70
2022-10-13T23:56:06.294Z,7.80
2022-10-13T23:58:35.449Z,7.60
